Portada
METAR-TAF:

METAR-TAF

Aeroports :

Àqaba, Jordània

latitud: 29-38N, longitud: 035-01E, altitud: 53 m

Observació

L'informe es va fer fa 2 hores i 40 minuts, a les 10:00 UTC
Vent 12 kt del Nord/Nord-Oest
Temperatura 34°C
Humitat 34%
Pressió 1007 hPa
Visibilitat 10 km o més
sense núvols per sota de 1500 mi sense presència de cumulonimbus.

METAR: OJAQ 211000Z 34012KT CAVOK 34/16 Q1007 NOSIG

Hora: 15:40 (12:40 UTC)

Pronòstic

L'informe es va fer fa 1 hora i 40 minuts, a les 11:00 UTC
Pronòstic vàlid del 21 a les 12 UTC al 22 a les 18 UTC
Vent 12 kt del Nord
Visibilitat: 7000 m

TAF: OJAQ 211100Z 2112/2218 36012KT 7000 NSC

Observacions i pronòstics meteorològics de més de 4000 aeroports (METAR i TAF).

Les estacions disponibles són els punts grocs i vermells al mapa.

Posi el ratolí al punt desitjat per veure el nom de l'estació.

Feu clic per veure les observacions i els pronòstics meteorològics.

Per canviar el mapa: feu clic els botons verds amb una creu de color negre per apropar; al botó verd amb un guió per allunyar la imatge; o en les fletxes verdes per a mapes adjacents.


METAR-TAF: